Jacksonville, FL

9:27 PM EDT on May 05, 2015 (GMT -0400)
Westside, South Ricker Rd | | Change Station
CLOSE
Current Station
Personal Weather Station
Location: Jacksonville, FL
Elevation: 21 ft
Nearby Weather Stations

Elev 21 ft 30.21 °N, 81.77 °W | Updated 2 seconds ago

Mostly Cloudy
Mostly Cloudy
71.1 °F
Feels Like 71 °F
N
0.0
Wind Variable Wind from SSE
Gusts 2.0 mph

Today
High -- | Low -- °F
--% Chance of Precip.
Yesterday
High -- | Low -- °F
Precip. -- in
6:40 AM 8:07 PM
Waning Gibbous, 96% visible
Pressure 30.16 in
Visibility 10.0 miles
Clouds Few 1700 ft
Scattered Clouds 6000 ft
Mostly Cloudy 25000 ft
Heat Index 71 °F
Dew Point 66 °F
Humidity 83%
Rainfall 0.00 in
Snow Depth Not available.
UV 0 out of 12
Pollen 6.00 out of 12
Air Quality Not available.
Flu Activity Local Activity
METAR KNIP 060053Z 04012KT 10SM FEW017 SCT060 BKN250 24/18 A3017 RMK AO2 SLP213 T02390178

More Conditions Fewer Conditions

Pressure 30.16 in
Visibility 10.0 miles
Clouds Few 1700 ft
Scattered Clouds 6000 ft
Mostly Cloudy 25000 ft
Heat Index 71 °F
Dew Point 66 °F
Humidity 83%
Rainfall 0.00 in
Snow Depth Not available.
UV 0 out of 12
Pollen 6.00 out of 12
Air Quality Not available.
Flu Activity Local Activity
METAR KNIP 060053Z 04012KT 10SM FEW017 SCT060 BKN250 24/18 A3017 RMK AO2 SLP213 T02390178

More Conditions Fewer Conditions

10-Day Weather Forecast

Almanac

Astronomy

May. 05, 2015 Rise Set
Actual Time
Civil Twilight
Nautical Twilight
Astronomical Twilight
Moon
Length of Visible Light
Length of Day
Tomorrow will be .
, % of the Moon is Illuminated

Today's Extremes

State Highs State Lows

Community

WunderPhotos

Upload Photos

1,819,032 photos uploaded!

WunderBlogs® & News

Nearby

Air Quality

  Air Quality AQ Index Pollutant
Not available.

Snow Depth

Station Depth Elevation

Earthquake Activity

City Distance Mag. Time & Date
Minimum magnitude displayed is 2.5.

Coastal Water Temperatures

Place Temperature

Stations

Nearby Weather Stations

Station Location Temp. Windchill Dew Point Humidity Wind Precip. Elev Updated Type